Time;durP1;ratioP1;P1;durP2;ratioP2;P2;SDS_P1;SDS_P2;PMS_P1;PMS_P2;Temp;Humidity;BMP_temperature;BMP_pressure;BME280_temperature;BME280_humidity;BME280_pressure;Samples;Min_cycle;Max_cycle;Signal;HPM_P1;HPM_P2
2022/07/18 00:02:17;;;;;;;4.30;0.90;;;;;;;27.37;26.76;99411.75;6216103;23;20484;-91
2022/07/18 00:04:43;;;;;;;1.20;0.53;;;;;;;27.30;27.37;99421.59;6190243;23;20208;-91
2022/07/18 00:07:14;;;;;;;1.47;0.70;;;;;;;27.28;27.04;99417.41;6216953;23;20150;-90
2022/07/18 00:09:41;;;;;;;2.53;0.90;;;;;;;27.23;26.77;99415.22;6190254;23;20146;-91
2022/07/18 00:12:08;;;;;;;1.40;0.70;;;;;;;27.19;26.84;99416.63;6189844;23;20157;-90
2022/07/18 00:14:37;;;;;;;3.60;0.60;;;;;;;27.17;27.32;99420.50;6216657;23;20180;-91
2022/07/18 00:17:05;;;;;;;3.13;0.70;;;;;;;27.08;27.44;99427.78;6216454;23;20150;-90
2022/07/18 00:19:34;;;;;;;2.47;0.83;;;;;;;27.03;27.19;99432.03;6190544;23;20184;-90
2022/07/18 00:22:00;;;;;;;1.87;0.70;;;;;;;26.96;27.89;99431.91;6216638;23;20158;-90
2022/07/18 00:24:31;;;;;;;4.03;0.80;;;;;;;26.80;28.05;99429.31;6190327;23;20153;-91
2022/07/18 00:27:00;;;;;;;2.70;1.07;;;;;;;26.69;28.48;99421.59;6189856;23;20256;-89
2022/07/18 00:29:26;;;;;;;4.40;0.80;;;;;;;26.61;28.80;99425.16;6216285;23;20150;-90
2022/07/18 00:31:51;;;;;;;1.23;0.57;;;;;;;26.54;28.99;99431.44;6190038;23;20174;-91
2022/07/18 00:34:17;;;;;;;2.13;0.90;;;;;;;26.52;28.94;99436.16;6189811;23;20174;-90
2022/07/18 00:36:43;;;;;;;2.17;0.80;;;;;;;26.42;29.89;99422.91;6189956;23;20173;-89
2022/07/18 00:39:11;;;;;;;2.37;0.90;;;;;;;26.37;30.13;99432.50;6190010;23;20182;-90
2022/07/18 00:41:37;;;;;;;2.23;0.93;;;;;;;26.43;30.41;99431.81;6189558;23;20154;-90
2022/07/18 00:44:03;;;;;;;2.10;0.70;;;;;;;26.46;30.42;99426.94;6190107;23;20154;-90
2022/07/18 00:46:29;;;;;;;1.80;0.77;;;;;;;26.43;30.84;99432.66;6216553;23;20146;-90
2022/07/18 00:48:54;;;;;;;2.60;0.87;;;;;;;26.36;30.36;99436.22;6189911;23;20308;-90
2022/07/18 00:51:20;;;;;;;2.00;0.80;;;;;;;26.34;29.72;99431.00;6189827;23;20274;-90
2022/07/18 00:53:49;;;;;;;1.50;0.50;;;;;;;26.32;29.10;99435.72;6189946;23;20522;-90
2022/07/18 00:56:18;;;;;;;1.40;0.57;;;;;;;26.30;28.66;99431.53;6215840;23;20181;-91
2022/07/18 00:58:44;;;;;;;2.23;0.50;;;;;;;26.26;27.77;99441.75;6189888;23;20244;-90
2022/07/18 01:03:54;;;;;;;1.13;0.63;;;;;;;26.19;27.41;99436.25;6216834;23;20208;-91
2022/07/18 01:06:20;;;;;;;3.00;0.80;;;;;;;26.13;27.39;99442.31;6189864;23;20177;-91
2022/07/18 01:08:48;;;;;;;1.33;0.50;;;;;;;26.14;27.11;99438.63;6216165;23;20157;-91
2022/07/18 01:11:16;;;;;;;5.60;1.00;;;;;;;26.14;26.99;99435.94;6189838;23;20157;-90
2022/07/18 01:13:45;;;;;;;1.90;0.57;;;;;;;26.11;27.24;99444.31;6216008;23;20185;-92
2022/07/18 01:16:15;;;;;;;2.87;0.70;;;;;;;26.02;27.33;99445.31;6215728;23;20612;-91
2022/07/18 01:18:54;;;;;;;2.00;0.77;;;;;;;25.99;26.85;99444.84;6189769;23;20154;-90
2022/07/18 01:21:19;;;;;;;0.93;0.33;;;;;;;25.99;26.89;99440.31;6216662;23;20142;-91
2022/07/18 01:23:45;;;;;;;4.23;0.70;;;;;;;25.96;27.06;99443.34;6216221;23;20204;-90
2022/07/18 01:26:15;;;;;;;3.03;0.73;;;;;;;25.93;26.90;99440.16;6189733;23;20573;-91
2022/07/18 01:28:41;;;;;;;1.57;0.87;;;;;;;25.92;26.85;99438.47;6216219;23;20237;-89
2022/07/18 01:31:07;;;;;;;3.10;0.60;;;;;;;25.89;26.74;99436.13;6216561;23;20146;-89
2022/07/18 01:33:33;;;;;;;1.83;0.60;;;;;;;25.91;26.69;99431.44;6189660;23;20169;-90
2022/07/18 01:36:06;;;;;;;1.27;0.83;;;;;;;25.93;26.56;99435.63;6216457;23;20284;-90
2022/07/18 01:38:36;;;;;;;1.30;0.47;;;;;;;25.91;26.36;99437.66;6216929;23;20138;-90
2022/07/18 01:41:02;;;;;;;1.10;0.57;;;;;;;25.97;26.37;99436.94;6215644;23;20149;-89
2022/07/18 01:43:28;;;;;;;2.47;0.60;;;;;;;25.98;26.42;99438.63;6216046;23;20252;-91
2022/07/18 01:45:54;;;;;;;1.87;0.50;;;;;;;25.89;26.92;99434.25;6189646;23;20595;-90
2022/07/18 01:48:22;;;;;;;0.83;0.50;;;;;;;25.86;26.88;99434.63;6189965;23;20185;-89
2022/07/18 01:50:48;;;;;;;3.73;0.63;;;;;;;25.88;26.81;99437.13;6189465;23;20165;-91
2022/07/18 01:53:13;;;;;;;2.77;0.50;;;;;;;25.90;26.86;99429.75;6189513;23;20211;-90
2022/07/18 01:55:41;;;;;;;6.57;0.63;;;;;;;25.91;27.07;99436.81;6189333;23;20242;-91
2022/07/18 01:58:07;;;;;;;1.73;0.83;;;;;;;25.88;27.04;99437.13;6189927;23;20182;-90
2022/07/18 02:00:32;;;;;;;4.23;0.87;;;;;;;25.90;26.93;99435.97;6215805;23;20146;-90
2022/07/18 02:03:00;;;;;;;6.33;1.13;;;;;;;25.86;27.11;99434.63;6215755;23;20149;-90
2022/07/18 02:05:26;;;;;;;1.47;0.67;;;;;;;25.85;27.61;99437.47;6215992;23;20153;-90
2022/07/18 02:07:51;;;;;;;0.50;0.37;;;;;;;25.83;27.86;99437.66;6189392;23;20161;-90
2022/07/18 02:10:20;;;;;;;1.17;0.50;;;;;;;25.76;28.47;99439.31;6189386;23;20165;-89
2022/07/18 02:12:46;;;;;;;1.60;0.60;;;;;;;25.72;28.39;99448.75;6215950;23;20149;-91
2022/07/18 02:15:13;;;;;;;1.60;0.63;;;;;;;25.68;28.86;99446.56;6215971;23;20244;-91
2022/07/18 02:17:39;;;;;;;1.10;0.50;;;;;;;25.71;28.71;99446.22;6215574;23;20165;-90
2022/07/18 02:20:09;;;;;;;4.07;0.70;;;;;;;25.63;29.05;99449.72;6189144;23;20196;-90
2022/07/18 02:22:34;;;;;;;1.33;0.80;;;;;;;25.51;29.24;99460.00;6189321;23;20204;-90
2022/07/18 02:25:00;;;;;;;1.00;0.50;;;;;;;25.41;29.31;99456.59;6189098;23;20476;-91
2022/07/18 02:27:26;;;;;;;1.97;0.40;;;;;;;25.29;29.33;99462.47;6215513;23;20592;-91
2022/07/18 02:29:52;;;;;;;2.17;0.50;;;;;;;25.25;29.47;99456.59;6215333;23;20596;-90
2022/07/18 02:32:18;;;;;;;1.40;0.47;;;;;;;25.13;29.73;99467.81;6215643;23;20150;-89
2022/07/18 02:34:43;;;;;;;1.33;0.50;;;;;;;25.07;29.97;99468.47;6189365;23;20186;-90
2022/07/18 02:37:09;;;;;;;2.83;0.97;;;;;;;;;;6217694;23;20517;-90
2022/07/18 02:39:34;;;;;;;3.23;0.70;;;;;;;24.87;30.11;99467.88;6217318;23;20152;-89
2022/07/18 02:42:06;;;;;;;1.80;0.87;;;;;;;24.76;30.25;99471.72;6217406;23;20149;-91
2022/07/18 02:44:37;;;;;;;1.43;0.50;;;;;;;24.59;30.05;99475.31;6191053;23;20149;-90
2022/07/18 02:47:08;;;;;;;1.07;0.67;;;;;;;24.54;30.50;99474.09;6213533;23;20173;-90
2022/07/18 02:49:34;;;;;;;1.47;0.60;;;;;;;24.52;30.51;99482.31;6217772;23;20190;-90
2022/07/18 02:52:10;;;;;;;2.20;1.20;;;;;;;24.49;30.86;99484.47;6191324;23;20208;-90
2022/07/18 02:54:38;;;;;;;1.97;0.77;;;;;;;24.51;30.23;99483.31;6191367;23;20181;-91
2022/07/18 02:57:04;;;;;;;3.30;0.70;;;;;;;24.55;30.64;99476.66;6191093;23;20477;-89
2022/07/18 02:59:29;;;;;;;1.43;0.60;;;;;;;24.59;30.90;99491.38;6192089;23;20157;-90
2022/07/18 03:01:58;;;;;;;1.30;0.50;;;;;;;24.55;30.53;99490.03;6190865;23;20172;-89
2022/07/18 03:04:24;;;;;;;3.33;1.03;;;;;;;24.45;30.09;99483.94;6190846;23;20157;-89
2022/07/18 03:06:51;;;;;;;1.50;0.50;;;;;;;24.42;30.23;99490.47;6217121;23;20192;-89
2022/07/18 03:09:19;;;;;;;1.23;0.80;;;;;;;24.49;29.93;99496.03;6190918;23;20158;-89
2022/07/18 03:11:45;;;;;;;2.57;1.10;;;;;;;24.49;29.73;99501.41;6190975;23;20619;-88
2022/07/18 03:14:10;;;;;;;1.70;0.70;;;;;;;24.54;29.66;99501.75;6216678;23;20171;-90
2022/07/18 03:16:36;;;;;;;3.27;0.70;;;;;;;24.42;30.24;99501.19;6216993;23;20204;-90
2022/07/18 03:19:05;;;;;;;2.90;0.80;;;;;;;24.52;29.79;99500.25;6190870;23;20168;-91
2022/07/18 03:21:33;;;;;;;1.00;0.60;;;;;;;24.64;30.40;99505.16;6190027;23;20153;-90
2022/07/18 03:23:59;;;;;;;1.57;0.83;;;;;;;24.65;30.03;99501.47;6190798;23;20163;-89
2022/07/18 03:26:24;;;;;;;2.40;0.90;;;;;;;24.69;30.22;99508.19;6190818;23;20237;-88
2022/07/18 03:28:50;;;;;;;2.17;0.60;;;;;;;24.77;30.20;99507.38;6216816;23;20204;-88
2022/07/18 03:31:15;;;;;;;1.33;0.60;;;;;;;24.79;30.72;99503.56;6217114;23;20150;-89
2022/07/18 03:33:41;;;;;;;2.57;0.87;;;;;;;24.73;31.33;99503.34;6190626;23;20161;-89
2022/07/18 03:36:10;;;;;;;1.97;0.87;;;;;;;24.71;31.74;99508.84;6190334;23;20178;-89
2022/07/18 03:38:42;;;;;;;2.07;0.80;;;;;;;24.60;31.56;99506.50;6190318;23;20479;-89
2022/07/18 03:41:11;;;;;;;4.70;1.00;;;;;;;24.50;31.90;99508.44;6190499;23;20265;-87
2022/07/18 03:43:40;;;;;;;1.10;0.73;;;;;;;24.50;32.10;99508.44;6190443;23;20181;-89
2022/07/18 03:46:07;;;;;;;1.73;0.77;;;;;;;24.48;32.50;99509.59;6216388;23;20156;-90
2022/07/18 03:48:33;;;;;;;1.80;0.90;;;;;;;24.39;32.33;99506.88;6214808;23;20225;-89
2022/07/18 03:50:59;;;;;;;1.57;0.57;;;;;;;24.35;32.18;99510.03;6214631;23;20700;-89
2022/07/18 03:53:26;;;;;;;2.73;0.77;;;;;;;24.27;32.13;99512.66;6216572;23;20177;-88
2022/07/18 03:55:51;;;;;;;6.77;1.07;;;;;;;24.18;32.39;99505.56;6217036;23;20617;-90
2022/07/18 03:58:17;;;;;;;1.27;0.50;;;;;;;24.17;32.37;99511.91;6216572;23;20229;-89
2022/07/18 04:00:42;;;;;;;1.73;0.47;;;;;;;24.15;32.80;99519.28;6216924;23;20150;-89
2022/07/18 04:03:08;;;;;;;2.27;0.70;;;;;;;24.15;32.67;99513.91;6190948;23;20157;-91
2022/07/18 04:05:33;;;;;;;1.67;0.60;;;;;;;24.18;32.84;99513.63;6189017;23;20151;-91
2022/07/18 04:07:59;;;;;;;3.53;1.10;;;;;;;24.16;32.45;99520.97;6190278;23;20158;-91
2022/07/18 04:10:25;;;;;;;1.67;0.70;;;;;;;24.14;32.75;99528.31;6190003;23;20244;-91
2022/07/18 04:12:52;;;;;;;3.77;1.00;;;;;;;24.13;32.88;99529.31;6216738;23;20178;-91
2022/07/18 04:15:19;;;;;;;0.93;0.50;;;;;;;24.12;33.45;99536.50;6216868;23;20185;-91
2022/07/18 04:17:45;;;;;;;1.63;0.80;;;;;;;24.10;34.03;99537.66;6215773;23;20146;-91
2022/07/18 04:20:14;;;;;;;2.27;0.80;;;;;;;24.07;34.12;99543.28;6216410;23;20190;-91
2022/07/18 04:22:45;;;;;;;3.80;1.13;;;;;;;24.10;34.44;99545.69;6190116;23;20504;-91
2022/07/18 04:25:13;;;;;;;1.43;0.60;;;;;;;24.10;34.62;99543.03;6216296;23;20554;-91
2022/07/18 04:27:39;;;;;;;1.50;0.53;;;;;;;24.15;34.30;99551.44;6215877;23;20156;-92
2022/07/18 04:30:05;;;;;;;2.87;0.87;;;;;;;24.17;34.48;99552.09;6190278;23;20181;-90
2022/07/18 04:32:31;;;;;;;2.90;0.87;;;;;;;24.23;35.07;99564.88;6190103;23;20192;-90
2022/07/18 04:34:56;;;;;;;1.53;0.53;;;;;;;24.26;35.46;99560.06;6216322;23;20178;-91
2022/07/18 04:37:21;;;;;;;1.47;0.83;;;;;;;24.36;34.68;99554.59;6216372;23;20512;-91
2022/07/18 04:39:47;;;;;;;2.13;0.70;;;;;;;24.34;34.65;99561.94;6216964;23;20295;-91
2022/07/18 04:42:12;;;;;;;2.00;0.67;;;;;;;24.30;34.39;99563.25;6216156;23;20146;-89
2022/07/18 04:44:38;;;;;;;1.33;0.80;;;;;;;24.26;34.55;99567.25;6216771;23;20152;-90
2022/07/18 04:47:03;;;;;;;1.43;0.73;;;;;;;24.34;34.71;99578.84;6216582;23;20145;-90
2022/07/18 04:49:29;;;;;;;1.40;0.60;;;;;;;24.38;34.58;99582.91;6215942;23;20165;-91
2022/07/18 04:51:54;;;;;;;1.27;0.60;;;;;;;24.42;34.36;99583.44;6190225;23;20241;-90
2022/07/18 04:54:20;;;;;;;2.47;0.80;;;;;;;24.41;33.99;99579.91;6216119;23;20157;-90
2022/07/18 04:56:45;;;;;;;3.53;0.77;;;;;;;24.40;34.39;99586.25;6215866;23;20567;-90
2022/07/18 04:59:11;;;;;;;1.13;0.60;;;;;;;24.42;34.37;99581.59;6189778;23;20166;-90
2022/07/18 05:01:36;;;;;;;4.00;0.87;;;;;;;24.50;34.26;99588.84;6216140;23;20157;-90
2022/07/18 05:04:02;;;;;;;2.30;0.83;;;;;;;24.59;33.54;99582.53;6215672;23;20224;-91
2022/07/18 05:06:28;;;;;;;4.80;1.20;;;;;;;24.65;34.01;99578.38;6189844;23;20149;-91
2022/07/18 05:08:53;;;;;;;1.90;0.70;;;;;;;24.66;34.10;99578.22;6189983;23;20695;-90
2022/07/18 05:11:19;;;;;;;1.23;0.77;;;;;;;24.68;33.47;99580.75;6216051;23;20219;-91
2022/07/18 05:13:47;;;;;;;1.83;0.73;;;;;;;24.72;32.44;99577.59;6216486;23;20146;-90
2022/07/18 05:16:13;;;;;;;2.17;0.97;;;;;;;24.69;32.99;99577.03;6189762;23;20181;-91
2022/07/18 05:18:38;;;;;;;2.63;1.10;;;;;;;24.57;32.86;99583.69;6189861;23;20164;-91
2022/07/18 05:21:06;;;;;;;3.00;0.70;;;;;;;24.59;32.72;99571.81;6189667;23;20153;-89
2022/07/18 05:23:31;;;;;;;1.37;0.70;;;;;;;24.48;31.81;99584.63;6216156;23;20157;-90
2022/07/18 05:26:00;;;;;;;1.30;0.80;;;;;;;24.58;32.78;99580.84;6216035;23;20145;-91
2022/07/18 05:28:26;;;;;;;1.20;0.53;;;;;;;24.88;32.48;99591.09;6190178;23;20146;-90
2022/07/18 05:30:54;;;;;;;1.53;0.60;;;;;;;24.96;32.08;99592.97;6215779;23;20150;-91
2022/07/18 05:33:19;;;;;;;2.10;0.80;;;;;;;24.54;32.47;99590.22;6189639;23;20164;-91
2022/07/18 05:35:45;;;;;;;5.23;1.33;;;;;;;24.93;31.46;99586.09;6215533;23;20174;-91
2022/07/18 05:38:11;;;;;;;1.30;0.60;;;;;;;25.23;31.53;99587.41;6215952;23;20244;-90
2022/07/18 05:40:36;;;;;;;2.10;0.60;;;;;;;25.39;31.01;99589.28;6215798;23;20152;-90
2022/07/18 05:43:02;;;;;;;1.27;0.57;;;;;;;25.55;30.97;99586.69;6216527;23;20154;-91
2022/07/18 05:45:28;;;;;;;1.10;0.60;;;;;;;25.70;30.72;99593.09;6190017;23;20212;-89
2022/07/18 05:47:54;;;;;;;1.20;0.67;;;;;;;25.83;30.67;99596.13;6215907;23;20146;-90
2022/07/18 05:50:19;;;;;;;1.33;0.50;;;;;;;25.97;30.49;99592.75;6189441;23;20259;-91
2022/07/18 05:53:15;;;;;;;;;;;;;;;;;;;;;
2022/07/18 05:55:58;;;;;;;2.00;0.50;;;;;;;26.44;30.77;99592.94;6215937;23;20268;-91
2022/07/18 05:58:27;;;;;;;1.60;0.77;;;;;;;26.51;30.78;99590.41;6189803;23;20153;-91
2022/07/18 06:00:53;;;;;;;1.97;0.83;;;;;;;26.65;31.01;99589.72;6216135;23;20209;-90
2022/07/18 06:03:27;;;;;;;3.00;0.80;;;;;;;26.66;31.37;99588.69;6215779;23;20176;-90
2022/07/18 06:05:53;;;;;;;1.70;0.53;;;;;;;26.74;31.03;99597.59;6189906;23;20150;-92
2022/07/18 06:08:18;;;;;;;1.60;0.67;;;;;;;26.91;29.73;99589.50;6189551;23;20204;-90
2022/07/18 06:10:46;;;;;;;1.33;0.50;;;;;;;27.06;30.03;99596.69;6217706;23;20146;-91
2022/07/18 06:13:12;;;;;;;1.83;0.80;;;;;;;27.24;30.55;99599.97;6191959;23;20203;-90
2022/07/18 06:15:37;;;;;;;1.73;0.50;;;;;;;27.40;29.71;99599.91;6191598;23;20178;-90
2022/07/18 06:18:03;;;;;;;1.07;0.50;;;;;;;27.47;29.70;99591.94;6191575;23;20235;-91
2022/07/18 06:20:49;;;;;;;1.27;0.40;;;;;;;27.43;29.72;99599.56;6191378;23;20154;-92
2022/07/18 06:23:24;;;;;;;1.92;0.57;;;;;;;27.47;30.28;99594.63;6218116;23;20553;-92
2022/07/18 06:25:52;;;;;;;1.88;0.50;;;;;;;27.65;30.21;99591.66;6191823;23;20206;-91
2022/07/18 06:28:22;;;;;;;2.28;0.70;;;;;;;27.94;30.23;99598.03;6218049;23;20153;-91
2022/07/18 06:33:44;;;;;;;4.05;0.80;;;;;;;28.44;31.53;99588.53;6217716;23;20165;-91
2022/07/18 06:36:11;;;;;;;3.08;1.10;;;;;;;28.51;29.86;99590.31;6217783;23;20178;-92
2022/07/18 06:38:45;;;;;;;1.75;0.80;;;;;;;28.69;29.59;99590.00;6192014;23;20158;-92
2022/07/18 06:41:13;;;;;;;1.65;0.70;;;;;;;28.87;30.65;99578.84;6192236;23;20225;-91
2022/07/18 06:44:04;;;;;;;1.88;1.27;;;;;;;29.19;30.79;99581.13;6191387;23;20154;-90
2022/07/18 06:46:41;;;;;;;1.90;0.80;;;;;;;29.28;30.77;99582.72;6192378;23;20138;-91
2022/07/18 06:49:15;;;;;;;2.80;0.82;;;;;;;29.65;30.78;99585.25;6191126;23;20137;-90
2022/07/18 06:52:04;;;;;;;2.78;0.85;;;;;;;29.93;31.05;99584.53;6190525;23;20161;-91
2022/07/18 06:55:20;;;;;;;;;;;;;;;;;;;;;
2022/07/18 06:58:33;;;;;;;;;;;;;;;;;;;;;
2022/07/18 07:08:36;;;;;;;5.50;1.00;;;;;;;30.96;29.71;99575.56;6021053;23;20161;-90
2022/07/18 07:15:40;;;;;;;2.70;1.20;;;;;;;31.55;30.45;99569.59;5818712;24;20286;-92
2022/07/18 07:19:18;;;;;;;4.75;1.30;;;;;;;31.58;30.25;99569.97;5792697;24;20164;-93
2022/07/18 07:22:30;;;;;;;4.03;1.30;;;;;;;32.11;30.84;99560.09;5845549;24;20180;-91
2022/07/18 07:36:03;;;;;;;2.83;1.13;;;;;;;32.95;29.67;99562.91;5892768;24;20293;-91
2022/07/18 08:20:11;;;;;;;2.72;1.13;;;;;;;33.91;31.75;99540.06;5845803;24;20228;-92
2022/07/18 08:46:57;;;;;;;4.90;1.40;;;;;;;34.52;30.92;99529.28;6095960;23;20139;-91
2022/07/18 09:39:33;;;;;;;;;;;;;;;;;;;;;
2022/07/18 10:04:10;;;;;;;1.60;0.90;;;;;;;36.55;26.74;99490.13;5984860;23;20170;-93
2022/07/18 10:27:49;;;;;;;3.03;0.98;;;;;;;36.19;26.12;99473.97;5818824;24;20172;-91
2022/07/18 10:30:37;;;;;;;2.28;0.75;;;;;;;36.07;25.54;99468.50;5844792;24;20519;-93
2022/07/18 10:54:12;;;;;;;4.78;0.90;;;;;;;35.29;27.30;99456.94;6204736;23;20259;-91
2022/07/18 10:57:25;;;;;;;2.42;1.10;;;;;;;35.31;25.31;99456.69;6216736;23;20170;-92
2022/07/18 11:00:38;;;;;;;1.85;0.85;;;;;;;35.70;26.48;99442.47;6180371;23;20157;-93
2022/07/18 11:04:00;;;;;;;2.33;1.05;;;;;;;35.93;26.39;99441.66;6138253;23;20150;-92
2022/07/18 11:24:18;;;;;;;4.38;1.48;;;;;;;35.77;25.69;99424.09;5918781;24;20258;-91
2022/07/18 11:34:10;;;;;;;2.53;1.40;;;;;;;36.36;23.78;99431.22;5872336;24;20593;-90
2022/07/18 11:47:49;;;;;;;3.83;1.58;;;;;;;36.64;23.21;99414.06;5818696;24;20528;-89
2022/07/18 12:01:19;;;;;;;0.98;0.57;;;;;;;34.77;29.55;99420.31;6040673;23;20157;-93
2022/07/18 12:07:49;;;;;;;1.33;0.60;;;;;;;34.79;30.26;99415.47;5953431;24;20175;-93
2022/07/18 12:14:15;;;;;;;4.30;1.10;;;;;;;35.36;31.25;99415.91;5955277;24;20148;-91
2022/07/18 12:17:30;;;;;;;1.95;0.98;;;;;;;35.24;29.99;99415.06;6015645;23;20177;-93
2022/07/18 12:20:42;;;;;;;2.28;1.00;;;;;;;34.86;29.87;99420.81;6210695;23;20182;-93
2022/07/18 12:23:49;;;;;;;1.88;0.73;;;;;;;34.74;30.55;99418.03;6190733;23;20155;-90
2022/07/18 12:41:14;;;;;;;1.45;0.70;;;;;;;34.38;29.65;99427.03;5981767;24;20174;-92
2022/07/18 12:44:21;;;;;;;1.92;0.95;;;;;;;33.82;30.73;99429.88;5968010;23;20182;-91
2022/07/18 12:46:46;;;;;;;2.25;0.90;;;;;;;33.69;30.62;99423.72;5937122;24;20576;-91
2022/07/18 12:49:20;;;;;;;6.25;1.13;;;;;;;33.76;30.40;99422.59;5958251;24;20162;-90
2022/07/18 12:51:50;;;;;;;2.90;1.20;;;;;;;33.68;30.86;99427.47;5976413;23;20159;-92
2022/07/18 12:54:23;;;;;;;7.82;1.48;;;;;;;33.54;31.33;99421.31;5984874;23;20293;-90
2022/07/18 12:56:54;;;;;;;1.42;0.68;;;;;;;33.68;31.08;99422.03;6027984;23;20169;-90
2022/07/18 12:59:22;;;;;;;2.70;0.77;;;;;;;33.42;31.74;99418.47;6041405;23;20171;-91
2022/07/18 13:02:08;;;;;;;2.30;0.98;;;;;;;33.40;31.74;99417.03;6039841;23;20167;-90
2022/07/18 13:05:10;;;;;;;2.97;0.95;;;;;;;33.10;32.02;99416.78;6060483;23;20176;-91
2022/07/18 13:07:58;;;;;;;2.08;0.90;;;;;;;33.42;30.78;99418.47;6019786;23;20255;-93
2022/07/18 13:10:36;;;;;;;;;;;;;;;;;;;;;
2022/07/18 13:13:19;;;;;;;;;;;;;;;;;;;;;
2022/07/18 13:15:57;;;;;;;3.30;0.77;;;;;;;32.83;32.78;99423.41;6114486;23;20265;-90
2022/07/18 13:19:07;;;;;;;3.40;0.73;;;;;;;32.87;32.66;99419.19;6216423;23;20164;-91
2022/07/18 13:22:37;;;;;;;;;;;;;;;;;;;;;
2022/07/18 13:36:03;;;;;;;2.00;0.60;;;;;;;32.37;33.27;99409.13;5948035;23;20263;-91
2022/07/18 13:39:13;;;;;;;3.40;0.77;;;;;;;32.68;32.74;99404.66;6028116;23;20164;-93
2022/07/18 13:51:40;;;;;;;1.95;1.00;;;;;;;33.54;32.21;99399.56;6213278;22;20211;-91
2022/07/18 13:58:10;;;;;;;;;;;;;;;;;;;;;
2022/07/18 14:04:11;;;;;;;2.60;0.80;;;;;;;33.82;31.58;99377.38;6124915;23;20166;-91
2022/07/18 14:21:11;;;;;;;1.77;0.70;;;;;;;34.59;29.91;99393.09;6038395;23;20186;-91
2022/07/18 14:27:36;;;;;;;6.22;0.60;;;;;;;33.88;29.63;99399.03;6091127;23;20199;-91
2022/07/18 14:40:26;;;;;;;;;;;;;;;;;;;;;
2022/07/18 14:43:01;;;;;;;4.00;0.90;;;;;;;33.40;31.08;99381.69;6039742;23;20241;-92
2022/07/18 14:55:50;;;;;;;4.95;1.05;;;;;;;33.55;31.67;99382.19;5843460;24;20206;-91
2022/07/18 14:59:14;;;;;;;;;;;;;;;;;;;;;
2022/07/18 15:09:17;;;;;;;2.35;0.70;;;;;;;33.55;30.75;99378.63;5816852;24;20167;-92
2022/07/18 15:15:27;;;;;;;0.77;0.65;;;;;;;33.31;31.60;99372.13;5899700;24;20285;-94
2022/07/18 15:18:29;;;;;;;4.18;1.15;;;;;;;33.46;31.53;99374.53;5899684;24;20181;-92
2022/07/18 15:21:55;;;;;;;;;;;;;;;;;;;;;
2022/07/18 15:24:21;;;;;;;0.80;0.60;;;;;;;33.26;31.70;99370.06;6041271;23;20238;-91
2022/07/18 15:27:23;;;;;;;1.70;0.75;;;;;;;33.01;31.23;99365.63;6178569;23;20192;-92
2022/07/18 15:30:47;;;;;;;1.73;0.95;;;;;;;32.89;30.43;99379.06;6191313;23;20145;-93
2022/07/18 15:34:08;;;;;;;;;;;;;;;;;;;;;
2022/07/18 15:36:49;;;;;;;;;;;;;;;;;;;;;
2022/07/18 15:40:14;;;;;;;;;;;;;;;;;;;;;
2022/07/18 15:42:53;;;;;;;6.07;1.00;;;;;;;32.89;31.66;99379.06;6072689;23;20648;-93
2022/07/18 15:45:24;;;;;;;2.30;0.98;;;;;;;32.53;31.95;99390.53;6072407;23;20545;-92
2022/07/18 15:51:23;;;;;;;1.75;0.85;;;;;;;32.07;32.57;99385.25;6010912;23;20268;-92
2022/07/18 16:02:19;;;;;;;4.35;1.45;;;;;;;31.98;32.64;99380.22;5898154;24;20165;-93
2022/07/18 16:15:48;;;;;;;3.13;1.70;;;;;;;32.44;32.36;99380.13;6066249;23;20193;-90
2022/07/18 16:18:49;;;;;;;;;;;;;;;;;;;;;
2022/07/18 16:22:38;;;;;;;;;;;;;;;;;;;;;
2022/07/18 16:28:22;;;;;;;23.95;13.45;;;;;;;31.96;33.14;99383.16;6015018;23;20162;-90
2022/07/18 16:33:52;;;;;;;6.20;2.95;;;;;;;31.97;33.31;99379.38;6110694;23;20506;-91
2022/07/18 16:36:18;;;;;;;7.18;4.05;;;;;;;32.13;33.48;99373.53;6127943;23;20183;-92
2022/07/18 16:39:15;;;;;;;7.85;4.13;;;;;;;32.21;32.97;99380.59;6220459;23;20153;-93
2022/07/18 16:41:50;;;;;;;17.45;7.05;;;;;;;31.49;34.24;99375.28;6219810;23;20161;-93
2022/07/18 16:44:26;;;;;;;;;;;;;;;;;;;;;
2022/07/18 16:46:55;;;;;;;18.42;9.50;;;;;;;31.51;34.16;99390.28;6246895;23;20224;-92
2022/07/18 16:49:35;;;;;;;10.98;4.03;;;;;;;31.30;33.12;99384.19;6246160;23;20145;-93
2022/07/18 16:52:05;;;;;;;2.55;1.33;;;;;;;30.91;33.66;99387.66;6220032;23;20478;-92
2022/07/18 16:54:35;;;;;;;4.53;2.42;;;;;;;31.28;33.15;99388.97;6219478;23;20149;-92
2022/07/18 16:57:13;;;;;;;2.67;1.10;;;;;;;31.34;32.65;99391.69;6219891;23;20164;-91
2022/07/18 17:00:03;;;;;;;2.75;0.85;;;;;;;31.14;32.43;99403.53;6220325;23;20145;-93
2022/07/18 17:02:29;;;;;;;4.72;0.93;;;;;;;30.82;32.22;99405.94;6220045;23;20284;-91
2022/07/18 17:04:57;;;;;;;6.60;0.85;;;;;;;30.45;33.21;99398.31;6246354;23;20180;-92
2022/07/18 17:07:32;;;;;;;1.38;0.60;;;;;;;30.45;32.97;99402.88;6220142;23;20157;-91
2022/07/18 17:09:57;;;;;;;2.67;1.13;;;;;;;30.69;33.08;99395.06;6246548;23;20163;-91
2022/07/18 17:12:25;;;;;;;5.72;1.15;;;;;;;30.82;32.58;99405.94;6218890;23;20188;-90
2022/07/18 17:14:53;;;;;;;2.67;0.70;;;;;;;30.99;32.34;99399.16;6246050;23;20129;-91
2022/07/18 17:17:21;;;;;;;4.00;0.60;;;;;;;31.05;32.53;99410.19;6245330;23;20598;-91
2022/07/18 17:19:46;;;;;;;1.67;0.70;;;;;;;30.96;32.46;99410.38;6245839;23;20202;-91
2022/07/18 17:22:19;;;;;;;1.60;0.60;;;;;;;30.91;32.43;99410.16;6246328;23;20157;-91
2022/07/18 17:24:45;;;;;;;3.03;0.75;;;;;;;30.92;32.50;99422.66;6215667;23;20183;-88
2022/07/18 17:27:14;;;;;;;7.47;0.80;;;;;;;30.89;32.12;99417.63;6218815;23;20149;-90
2022/07/18 17:29:40;;;;;;;1.70;0.68;;;;;;;30.53;32.79;99430.59;6218451;23;20153;-90
2022/07/18 17:32:06;;;;;;;0.60;0.40;;;;;;;30.52;32.71;99423.53;6244458;23;20448;-90
2022/07/18 17:34:32;;;;;;;5.47;0.77;;;;;;;30.33;33.16;99424.22;6245438;23;20149;-90
2022/07/18 17:36:59;;;;;;;1.85;0.60;;;;;;;30.31;32.77;99420.88;6245516;23;20149;-90
2022/07/18 17:39:49;;;;;;;1.77;0.70;;;;;;;29.72;33.67;99426.69;6219133;23;20491;-91
2022/07/18 17:42:15;;;;;;;3.45;0.80;;;;;;;29.85;34.11;99422.47;6219128;23;20153;-89
2022/07/18 17:44:41;;;;;;;1.30;0.55;;;;;;;30.02;33.88;99421.97;6218490;23;20160;-92
2022/07/18 17:47:10;;;;;;;1.88;0.65;;;;;;;30.01;33.56;99424.84;6219285;23;20234;-90
2022/07/18 17:49:39;;;;;;;7.45;0.80;;;;;;;29.70;33.83;99436.88;6219161;23;20250;-89
2022/07/18 17:52:11;;;;;;;2.13;0.70;;;;;;;29.46;34.33;99433.72;6245686;23;20153;-90
2022/07/18 17:54:37;;;;;;;2.03;0.70;;;;;;;29.51;34.59;99445.63;6219006;23;20145;-89
2022/07/18 17:57:15;;;;;;;2.40;0.68;;;;;;;29.23;34.77;99437.47;6219554;23;20595;-91
2022/07/18 17:59:41;;;;;;;2.70;0.57;;;;;;;29.16;35.47;99446.50;6219019;23;20160;-89
2022/07/18 18:02:17;;;;;;;7.88;0.80;;;;;;;29.30;34.86;99451.03;6218660;23;20152;-90
2022/07/18 18:04:46;;;;;;;2.97;0.82;;;;;;;29.40;34.90;99456.13;6218776;23;20227;-90
2022/07/18 18:07:15;;;;;;;1.58;0.60;;;;;;;29.23;34.87;99456.38;6221361;23;20963;-90
2022/07/18 18:09:40;;;;;;;6.13;0.90;;;;;;;29.14;35.15;99456.66;6247610;23;20145;-90
2022/07/18 18:12:22;;;;;;;1.38;0.50;;;;;;;29.11;35.05;99467.84;6247606;23;20145;-90
2022/07/18 18:14:50;;;;;;;2.30;0.85;;;;;;;29.03;35.92;99471.50;6221271;23;20232;-90
2022/07/18 18:17:16;;;;;;;1.83;0.85;;;;;;;28.89;36.02;99471.53;6220993;23;20491;-90
2022/07/18 18:19:47;;;;;;;2.25;0.60;;;;;;;28.70;35.83;99472.94;6247390;23;20686;-90
2022/07/18 18:22:16;;;;;;;1.80;0.52;;;;;;;28.70;35.84;99480.19;6221750;23;20173;-90
2022/07/18 18:24:42;;;;;;;1.48;0.68;;;;;;;28.39;36.36;99478.50;6221889;23;20199;-89
2022/07/18 18:27:08;;;;;;;6.60;1.17;;;;;;;28.31;36.73;99469.69;6221513;23;20188;-89
2022/07/18 18:29:33;;;;;;;3.20;0.93;;;;;;;28.22;36.94;99485.13;6220621;23;20149;-90
2022/07/18 18:32:07;;;;;;;1.92;0.60;;;;;;;28.27;37.14;99490.81;6221747;23;20156;-92
2022/07/18 18:34:38;;;;;;;4.55;0.80;;;;;;;28.13;37.23;99491.59;6221772;23;20142;-90
2022/07/18 18:37:06;;;;;;;1.23;0.68;;;;;;;28.17;37.15;99494.78;6219607;23;20161;-89
2022/07/18 18:39:48;;;;;;;1.15;0.40;;;;;;;27.61;38.54;99499.63;6220401;23;20149;-90
2022/07/18 18:42:27;;;;;;;1.20;0.43;;;;;;;27.63;38.51;99508.34;6219274;23;20552;-89
2022/07/18 18:44:58;;;;;;;1.85;0.70;;;;;;;27.59;38.61;99516.97;6220856;23;20153;-91
2022/07/18 18:47:33;;;;;;;1.13;0.50;;;;;;;27.44;38.62;99515.06;6221067;23;20226;-90
2022/07/18 18:49:58;;;;;;;1.60;0.43;;;;;;;27.20;39.20;99517.84;6247222;23;20167;-90
2022/07/18 18:52:24;;;;;;;1.67;0.85;;;;;;;27.44;39.23;99519.59;6220864;23;20153;-90